Time;durP1;ratioP1;P1;durP2;ratioP2;P2;SDS_P1;SDS_P2;PMS_P1;PMS_P2;Temp;Humidity;BMP_temperature;BMP_pressure;BME280_temperature;BME280_humidity;BME280_pressure;Samples;Min_cycle;Max_cycle;Signal;HPM_P1;HPM_P2
2022/12/20 00:01:32;;;;;;;6.07;3.78;;;10.40;91.10;;;;;;5006110;28;20409;-89
2022/12/20 00:04:01;;;;;;;5.22;3.90;;;10.50;90.90;;;;;;5005826;28;20479;-88
2022/12/20 00:06:27;;;;;;;7.40;3.65;;;10.40;90.90;;;;;;5005254;28;20420;-87
2022/12/20 00:08:58;;;;;;;5.35;3.58;;;10.40;90.70;;;;;;5005827;28;20432;-88
2022/12/20 00:11:25;;;;;;;6.45;3.72;;;10.50;90.90;;;;;;5005539;28;20421;-88
2022/12/20 00:13:51;;;;;;;6.53;3.70;;;10.40;90.70;;;;;;5005608;28;20416;-89
2022/12/20 00:16:20;;;;;;;5.47;3.67;;;10.40;90.60;;;;;;5005698;28;20588;-87
2022/12/20 00:18:49;;;;;;;5.33;3.97;;;10.40;90.60;;;;;;5005644;28;20887;-89
2022/12/20 00:21:15;;;;;;;5.15;3.40;;;10.40;90.60;;;;;;5004920;28;20499;-88
2022/12/20 00:23:41;;;;;;;5.53;3.70;;;10.40;90.60;;;;;;5005342;28;20573;-88
2022/12/20 00:26:10;;;;;;;5.47;3.33;;;10.40;90.50;;;;;;5005710;28;20437;-91
2022/12/20 00:28:36;;;;;;;6.90;3.40;;;10.40;90.40;;;;;;5005555;28;20795;-89
2022/12/20 00:31:03;;;;;;;6.47;3.45;;;10.60;90.20;;;;;;5005277;28;20397;-88
2022/12/20 00:33:29;;;;;;;4.73;3.10;;;10.50;90.20;;;;;;5005133;28;20477;-92
2022/12/20 00:35:56;;;;;;;4.93;3.40;;;10.50;90.10;;;;;;5004394;28;20439;-87
2022/12/20 00:38:23;;;;;;;4.38;2.83;;;10.50;90.10;;;;;;5004350;28;20499;-87
2022/12/20 00:41:03;;;;;;;5.13;3.22;;;10.50;89.70;;;;;;5004437;28;20412;-89
2022/12/20 00:43:29;;;;;;;4.70;2.92;;;10.60;89.50;;;;;;5005114;28;20416;-88
2022/12/20 00:45:55;;;;;;;4.93;2.78;;;10.60;89.70;;;;;;5004679;28;20409;-86
2022/12/20 00:48:21;;;;;;;4.68;3.03;;;10.60;89.40;;;;;;5004689;28;20417;-88
2022/12/20 00:50:46;;;;;;;3.78;3.03;;;10.60;90.00;;;;;;5005127;28;20421;-88
2022/12/20 00:53:12;;;;;;;5.43;2.97;;;10.60;89.00;;;;;;5004892;28;20397;-91
2022/12/20 00:55:42;;;;;;;4.72;2.90;;;10.60;89.10;;;;;;4988662;28;20827;-89
2022/12/20 00:58:08;;;;;;;5.15;3.20;;;10.60;89.10;;;;;;5004796;28;20525;-89
2022/12/20 01:00:34;;;;;;;3.78;2.60;;;10.60;88.70;;;;;;5005007;28;20923;-88
2022/12/20 01:02:59;;;;;;;4.13;2.92;;;10.60;88.50;;;;;;5004363;28;20500;-91
2022/12/20 01:05:25;;;;;;;5.93;2.70;;;10.70;88.60;;;;;;5004479;28;20436;-89
2022/12/20 01:07:51;;;;;;;4.53;2.60;;;10.70;88.20;;;;;;5004976;28;20495;-89
2022/12/20 01:10:17;;;;;;;4.38;2.75;;;10.80;88.30;;;;;;5004517;28;20444;-89
2022/12/20 01:12:43;;;;;;;5.43;3.00;;;10.70;88.20;;;;;;5004261;28;20432;-88
2022/12/20 01:15:09;;;;;;;4.75;2.85;;;10.70;88.00;;;;;;5004621;28;20436;-87
2022/12/20 01:17:35;;;;;;;3.70;2.60;;;10.70;87.90;;;;;;4988845;28;20413;-88
2022/12/20 01:20:01;;;;;;;5.68;2.78;;;10.70;87.90;;;;;;5004591;28;20419;-89
2022/12/20 01:22:26;;;;;;;4.43;2.67;;;10.80;88.00;;;;;;5004364;28;20444;-87
2022/12/20 01:24:52;;;;;;;4.30;2.40;;;10.70;87.60;;;;;;4988123;28;20458;-89
2022/12/20 01:27:17;;;;;;;5.60;2.97;;;10.70;87.50;;;;;;5004380;28;20408;-86
2022/12/20 01:29:43;;;;;;;3.83;2.40;;;10.70;87.30;;;;;;5004887;28;20840;-89
2022/12/20 01:32:08;;;;;;;3.95;2.63;;;10.70;87.90;;;;;;5004595;28;20499;-88
2022/12/20 01:34:34;;;;;;;3.90;2.47;;;10.70;87.60;;;;;;5003403;28;20423;-89
2022/12/20 01:37:00;;;;;;;4.63;2.85;;;10.70;87.50;;;;;;5004217;28;20447;-90
2022/12/20 01:39:25;;;;;;;3.50;2.40;;;10.80;87.60;;;;;;4988717;28;20436;-90
2022/12/20 01:41:51;;;;;;;4.70;2.73;;;10.80;87.60;;;;;;5003940;28;20412;-87
2022/12/20 01:44:17;;;;;;;5.53;2.45;;;10.70;86.90;;;;;;5004857;28;20405;-88
2022/12/20 01:46:44;;;;;;;4.47;2.60;;;10.80;87.00;;;;;;5004652;28;20408;-89
2022/12/20 01:49:34;;;;;;;4.60;2.38;;;11.00;87.30;;;;;;5004204;28;20400;-90
2022/12/20 01:52:22;;;;;;;4.05;2.58;;;10.70;87.60;;;;;;5004954;28;20424;-88
2022/12/20 01:55:01;;;;;;;3.93;2.30;;;10.80;86.90;;;;;;5004279;28;20440;-90
2022/12/20 01:57:35;;;;;;;3.85;2.30;;;10.70;86.80;;;;;;5004544;28;20753;-88
2022/12/20 02:00:01;;;;;;;4.30;2.42;;;10.70;86.80;;;;;;5003179;28;20420;-86
2022/12/20 02:02:27;;;;;;;4.30;2.40;;;10.70;87.00;;;;;;5004507;28;20853;-91
2022/12/20 02:04:53;;;;;;;4.38;2.40;;;10.70;86.90;;;;;;5003890;28;20409;-87
2022/12/20 02:07:25;;;;;;;4.53;2.80;;;10.80;86.80;;;;;;5003393;28;21051;-86
2022/12/20 02:09:52;;;;;;;3.60;2.50;;;10.70;86.70;;;;;;5003891;28;20404;-91
2022/12/20 02:12:24;;;;;;;4.03;2.45;;;10.70;87.00;;;;;;5004045;28;20398;-89
2022/12/20 02:15:03;;;;;;;4.80;2.50;;;10.70;87.00;;;;;;5004308;28;20443;-86
2022/12/20 02:18:04;;;;;;;3.58;2.35;;;10.80;87.00;;;;;;5004051;28;20409;-89
2022/12/20 02:21:04;;;;;;;4.10;2.28;;;10.70;87.10;;;;;;4985138;28;20421;-88
2022/12/20 02:24:03;;;;;;;4.40;2.53;;;10.80;87.30;;;;;;5002948;28;20413;-88
2022/12/20 02:27:09;;;;;;;4.85;2.50;;;10.70;87.10;;;;;;5003918;28;20413;-87
2022/12/20 02:29:57;;;;;;;4.97;2.60;;;10.80;87.60;;;;;;5003630;28;20450;-89
2022/12/20 02:32:48;;;;;;;4.32;2.42;;;10.80;87.70;;;;;;4987223;28;20500;-89
2022/12/20 02:35:18;;;;;;;4.93;2.65;;;10.70;88.20;;;;;;5003866;28;20424;-89
2022/12/20 02:37:53;;;;;;;3.42;2.30;;;10.70;88.60;;;;;;5003006;28;20413;-87
2022/12/20 02:40:23;;;;;;;3.53;2.47;;;10.70;89.50;;;;;;5003837;28;20439;-88
2022/12/20 02:42:54;;;;;;;5.72;3.00;;;10.70;90.00;;;;;;5002268;28;20463;-86
2022/12/20 02:45:25;;;;;;;4.30;2.88;;;10.70;90.50;;;;;;5005533;28;20753;-87
2022/12/20 02:47:59;;;;;;;4.32;2.85;;;10.70;90.50;;;;;;4990824;28;20423;-89
2022/12/20 02:50:40;;;;;;;4.22;2.85;;;10.60;91.00;;;;;;5006964;28;20420;-91
2022/12/20 02:53:07;;;;;;;4.95;3.20;;;10.60;91.30;;;;;;5007676;28;20417;-88
2022/12/20 02:55:45;;;;;;;5.93;3.42;;;10.50;91.50;;;;;;5006521;28;20843;-86
2022/12/20 02:58:42;;;;;;;4.38;3.45;;;10.50;91.70;;;;;;5006928;28;20408;-88
2022/12/20 03:01:48;;;;;;;6.15;3.25;;;10.40;92.20;;;;;;4990419;28;20930;-86
2022/12/20 03:04:16;;;;;;;5.95;3.80;;;10.40;92.30;;;;;;4970793;28;20514;-89
2022/12/20 03:07:07;;;;;;;5.43;3.90;;;10.30;92.40;;;;;;4999228;28;20415;-87
2022/12/20 03:09:36;;;;;;;5.82;3.40;;;10.30;92.70;;;;;;5006926;28;20408;-89
2022/12/20 03:12:02;;;;;;;5.85;3.70;;;10.30;92.80;;;;;;5007271;28;20536;-88
2022/12/20 03:14:27;;;;;;;4.93;3.58;;;10.30;92.80;;;;;;5006903;28;20408;-88
2022/12/20 03:17:18;;;;;;;5.23;3.60;;;10.30;92.90;;;;;;5006194;28;20763;-87
2022/12/20 03:19:43;;;;;;;5.70;3.75;;;10.20;93.00;;;;;;5006817;28;20417;-89
2022/12/20 03:22:09;;;;;;;5.57;3.40;;;10.30;93.00;;;;;;5007035;28;20419;-88
2022/12/20 03:24:35;;;;;;;4.40;3.23;;;10.30;93.20;;;;;;5006094;28;20477;-87
2022/12/20 03:27:01;;;;;;;5.40;3.30;;;10.30;93.00;;;;;;4989467;28;20502;-86
2022/12/20 03:29:26;;;;;;;4.97;3.40;;;10.40;93.00;;;;;;5005065;28;20756;-89
2022/12/20 03:31:52;;;;;;;3.88;2.75;;;10.50;93.00;;;;;;5006911;28;20416;-89
2022/12/20 03:34:18;;;;;;;5.53;3.47;;;10.40;93.00;;;;;;5006673;28;20425;-87
2022/12/20 03:36:43;;;;;;;6.38;3.72;;;10.40;93.00;;;;;;5006194;28;20491;-88
2022/12/20 03:39:09;;;;;;;3.77;3.20;;;10.40;93.10;;;;;;5006738;28;20501;-88
2022/12/20 03:41:35;;;;;;;5.10;3.60;;;10.40;93.10;;;;;;5006346;28;20492;-89
2022/12/20 03:44:00;;;;;;;5.28;3.67;;;10.40;93.10;;;;;;5006873;28;20828;-90
2022/12/20 03:46:26;;;;;;;4.80;3.40;;;10.40;93.10;;;;;;5007197;28;20416;-88
2022/12/20 03:48:52;;;;;;;4.90;3.35;;;10.40;93.10;;;;;;5007182;28;20411;-91
2022/12/20 03:51:18;;;;;;;5.67;3.17;;;10.60;93.10;;;;;;5005783;28;21057;-89
2022/12/20 03:53:43;;;;;;;4.38;3.15;;;10.40;93.00;;;;;;4990403;28;20417;-87
2022/12/20 03:56:09;;;;;;;4.72;3.28;;;10.50;93.00;;;;;;5005353;28;20516;-88
2022/12/20 03:58:35;;;;;;;4.90;3.33;;;10.40;93.00;;;;;;5006890;28;20888;-89
2022/12/20 04:01:00;;;;;;;4.67;3.20;;;10.50;93.00;;;;;;4990461;28;20452;-93
2022/12/20 04:03:26;;;;;;;4.45;3.13;;;10.60;93.10;;;;;;4989435;28;20413;-90
2022/12/20 04:05:52;;;;;;;5.33;3.07;;;10.50;92.90;;;;;;5005662;28;20421;-89
2022/12/20 04:08:17;;;;;;;5.10;3.67;;;10.50;92.90;;;;;;5005615;28;20420;-89
2022/12/20 04:13:27;;;;;;;5.18;3.78;;;10.50;93.00;;;;;;5005809;28;20413;-90
2022/12/20 04:15:53;;;;;;;5.20;3.73;;;10.40;93.10;;;;;;5006055;28;20708;-87
2022/12/20 04:18:18;;;;;;;6.13;4.33;;;10.70;93.20;;;;;;5005212;28;20439;-86
2022/12/20 04:20:44;;;;;;;5.85;4.07;;;10.40;93.10;;;;;;4988018;28;20419;-86
2022/12/20 04:23:10;;;;;;;6.43;3.83;;;10.40;93.20;;;;;;5004675;28;20413;-86
2022/12/20 04:25:35;;;;;;;5.05;3.80;;;10.40;93.10;;;;;;5005679;28;20420;-90
2022/12/20 04:28:01;;;;;;;4.50;3.60;;;10.40;93.10;;;;;;5005730;28;20413;-92
2022/12/20 04:30:26;;;;;;;5.23;3.50;;;10.50;93.10;;;;;;4988646;28;20424;-88
2022/12/20 04:32:53;;;;;;;6.15;3.55;;;10.50;93.00;;;;;;5005688;28;20503;-89
2022/12/20 04:35:19;;;;;;;5.57;3.83;;;10.50;92.90;;;;;;5004930;28;20518;-90
2022/12/20 04:37:46;;;;;;;6.43;3.67;;;10.50;92.80;;;;;;4989405;28;20503;-88
2022/12/20 04:40:12;;;;;;;6.32;3.80;;;10.50;92.80;;;;;;5005527;28;20463;-90
2022/12/20 04:42:38;;;;;;;4.30;3.58;;;10.60;92.60;;;;;;5005806;28;20507;-89
2022/12/20 04:45:04;;;;;;;4.38;3.40;;;10.60;92.70;;;;;;5005274;28;20975;-86
2022/12/20 04:47:29;;;;;;;4.13;3.30;;;10.60;92.60;;;;;;5002812;28;20425;-88
2022/12/20 04:49:55;;;;;;;5.97;4.13;;;10.60;92.60;;;;;;4989807;28;20416;-89
2022/12/20 04:55:05;;;;;;;5.20;3.97;;;10.60;92.40;;;;;;5004888;28;20440;-87
2022/12/20 04:57:30;;;;;;;5.28;3.38;;;10.70;92.40;;;;;;4998641;28;20404;-88
2022/12/20 04:59:56;;;;;;;5.10;3.33;;;10.70;92.40;;;;;;4995870;28;20484;-92
2022/12/20 05:02:21;;;;;;;7.23;3.60;;;10.70;92.30;;;;;;4997155;28;20758;-90
2022/12/20 05:04:47;;;;;;;4.15;3.42;;;10.80;92.20;;;;;;4994093;28;20416;-90
2022/12/20 05:07:13;;;;;;;4.20;3.30;;;10.80;92.20;;;;;;4977140;28;20494;-87
2022/12/20 05:09:38;;;;;;;4.30;3.03;;;10.70;92.10;;;;;;4996115;28;20772;-89
2022/12/20 05:12:04;;;;;;;4.30;3.28;;;10.80;92.00;;;;;;4982283;28;21007;-90
2022/12/20 05:14:30;;;;;;;4.80;2.87;;;10.80;92.00;;;;;;4993576;28;20421;-89
2022/12/20 05:16:55;;;;;;;4.40;3.20;;;10.80;91.90;;;;;;4996711;28;20418;-91
2022/12/20 05:19:21;;;;;;;5.60;3.00;;;10.80;91.80;;;;;;4996513;28;20418;-90
2022/12/20 05:27:15;;;;;;;4.75;2.75;;;10.90;91.60;;;;;;4995184;28;20418;-90
2022/12/20 05:29:40;;;;;;;4.50;3.00;;;10.90;91.60;;;;;;4995652;28;20427;-90
2022/12/20 05:32:06;;;;;;;4.03;3.10;;;10.90;91.50;;;;;;4979377;28;20419;-90
2022/12/20 05:34:31;;;;;;;5.17;2.90;;;11.10;91.50;;;;;;4977890;28;20465;-89
2022/12/20 05:36:57;;;;;;;4.05;2.83;;;11.00;91.40;;;;;;4994417;28;20415;-90
2022/12/20 05:39:23;;;;;;;4.87;2.93;;;10.90;91.30;;;;;;5026633;28;20491;-88
2022/12/20 05:41:49;;;;;;;4.97;3.20;;;11.00;91.40;;;;;;4979231;28;20410;-89
2022/12/20 05:44:14;;;;;;;5.18;3.13;;;11.00;91.30;;;;;;5031401;28;20405;-91
2022/12/20 05:46:40;;;;;;;4.70;3.10;;;10.90;91.20;;;;;;5028375;28;20462;-88
2022/12/20 05:49:06;;;;;;;5.10;3.00;;;10.90;91.30;;;;;;4978655;28;20421;-87
2022/12/20 05:51:31;;;;;;;5.00;3.20;;;10.90;91.30;;;;;;5025981;28;20587;-89
2022/12/20 05:53:57;;;;;;;5.37;2.90;;;11.00;91.40;;;;;;5011668;28;20772;-90
2022/12/20 05:56:22;;;;;;;4.43;2.60;;;11.00;91.40;;;;;;4977830;28;20435;-88
2022/12/20 05:58:48;;;;;;;3.90;2.90;;;10.90;91.20;;;;;;5028179;28;20428;-91
2022/12/20 06:01:14;;;;;;;3.25;2.42;;;10.90;91.20;;;;;;4993227;28;20423;-93
2022/12/20 06:03:39;;;;;;;4.53;2.55;;;10.90;91.20;;;;;;4985722;28;21285;-88
2022/12/20 06:06:06;;;;;;;4.57;2.80;;;10.90;91.20;;;;;;4985000;28;20410;-89
2022/12/20 06:08:32;;;;;;;4.57;2.70;;;10.90;91.20;;;;;;4968628;28;20442;-90
2022/12/20 06:10:57;;;;;;;4.45;2.70;;;11.00;91.20;;;;;;4968671;28;20503;-90
2022/12/20 06:13:23;;;;;;;5.33;2.97;;;11.00;91.10;;;;;;4967568;28;20417;-87
2022/12/20 06:15:49;;;;;;;5.38;2.70;;;10.90;91.00;;;;;;4984606;28;20440;-89
2022/12/20 06:18:14;;;;;;;3.88;2.90;;;11.10;91.10;;;;;;4984008;28;20442;-91
2022/12/20 06:20:40;;;;;;;4.43;2.53;;;11.10;91.00;;;;;;4987824;28;20906;-92
2022/12/20 06:23:08;;;;;;;4.55;2.75;;;11.10;90.90;;;;;;4975010;28;20429;-90
2022/12/20 06:25:34;;;;;;;4.40;2.70;;;11.10;91.00;;;;;;4983706;28;20410;-88
2022/12/20 06:28:00;;;;;;;3.77;2.50;;;11.10;90.90;;;;;;4997140;28;20424;-89
2022/12/20 06:30:26;;;;;;;5.13;2.70;;;11.20;90.90;;;;;;4982563;28;20894;-90
2022/12/20 06:32:51;;;;;;;4.03;2.67;;;11.10;90.80;;;;;;5038089;28;20413;-90
2022/12/20 06:35:17;;;;;;;3.97;2.55;;;11.20;90.80;;;;;;5040081;28;20434;-89
2022/12/20 06:37:43;;;;;;;4.70;2.95;;;11.30;90.80;;;;;;5024798;28;20782;-86
2022/12/20 06:40:12;;;;;;;6.00;3.00;;;11.30;90.90;;;;;;5040700;28;20425;-92
2022/12/20 06:42:38;;;;;;;4.65;3.00;;;11.20;90.80;;;;;;5022983;28;20452;-90
2022/12/20 06:45:04;;;;;;;4.95;2.90;;;11.20;90.90;;;;;;4981361;28;20440;-88
2022/12/20 06:47:30;;;;;;;4.13;3.20;;;11.20;91.00;;;;;;4981678;28;20467;-88
2022/12/20 06:49:55;;;;;;;4.60;2.80;;;11.20;91.20;;;;;;4997290;28;20406;-86
2022/12/20 06:52:21;;;;;;;4.63;3.13;;;11.20;91.20;;;;;;4996345;28;20493;-86
2022/12/20 06:54:47;;;;;;;5.25;3.78;;;11.20;91.40;;;;;;5015313;28;20423;-88
2022/12/20 06:57:12;;;;;;;4.53;3.60;;;11.20;91.70;;;;;;4994768;28;20449;-90
2022/12/20 06:59:38;;;;;;;4.65;3.83;;;11.20;91.80;;;;;;5030418;28;20802;-87
2022/12/20 07:02:04;;;;;;;5.63;4.17;;;11.10;91.90;;;;;;4997658;28;20903;-91
2022/12/20 07:04:29;;;;;;;5.57;4.10;;;11.20;92.00;;;;;;4979353;28;20556;-92
2022/12/20 07:06:56;;;;;;;5.40;4.28;;;11.10;92.20;;;;;;4982485;28;20412;-88
2022/12/20 07:09:22;;;;;;;5.72;4.60;;;11.10;92.40;;;;;;5004101;28;20440;-91
2022/12/20 07:11:48;;;;;;;6.28;4.70;;;11.20;92.60;;;;;;5029178;28;20408;-91
2022/12/20 07:14:14;;;;;;;5.83;4.60;;;11.10;92.60;;;;;;5033743;28;20420;-90
2022/12/20 07:16:42;;;;;;;6.50;5.37;;;11.10;92.70;;;;;;4999602;28;20432;-89
2022/12/20 07:19:12;;;;;;;6.00;4.90;;;11.30;92.80;;;;;;4993312;28;20415;-87
2022/12/20 07:21:39;;;;;;;5.57;5.07;;;11.10;92.80;;;;;;5013059;28;20796;-92
2022/12/20 07:24:05;;;;;;;6.05;4.95;;;11.10;92.90;;;;;;4978852;28;20418;-89
2022/12/20 07:26:30;;;;;;;5.70;5.20;;;11.10;92.90;;;;;;4980108;28;21131;-91
2022/12/20 07:28:56;;;;;;;5.82;4.80;;;11.10;92.90;;;;;;5029378;28;20468;-88
2022/12/20 07:31:22;;;;;;;6.07;5.00;;;11.10;92.90;;;;;;4978860;28;20900;-92
2022/12/20 07:33:47;;;;;;;7.07;4.67;;;11.00;92.90;;;;;;4979669;28;20438;-90
2022/12/20 07:36:14;;;;;;;5.95;4.90;;;11.30;93.00;;;;;;4996152;28;20437;-89
2022/12/20 07:38:40;;;;;;;6.63;5.07;;;11.00;93.00;;;;;;4981946;28;21127;-90
2022/12/20 07:41:14;;;;;;;6.05;5.28;;;11.10;93.20;;;;;;4984290;28;20448;-89
2022/12/20 07:43:40;;;;;;;6.25;5.20;;;11.00;93.20;;;;;;5006694;28;20444;-90
2022/12/20 07:46:07;;;;;;;7.47;5.20;;;11.00;93.30;;;;;;5039356;28;21005;-89
2022/12/20 07:48:34;;;;;;;6.80;5.30;;;11.10;93.30;;;;;;5039810;28;20421;-90
2022/12/20 07:51:05;;;;;;;6.32;5.05;;;11.00;93.30;;;;;;5040093;28;20824;-88
2022/12/20 07:53:31;;;;;;;6.10;4.70;;;11.00;93.30;;;;;;5039053;28;20479;-86
2022/12/20 07:56:00;;;;;;;6.20;5.43;;;11.00;93.30;;;;;;5039718;28;20433;-88
2022/12/20 07:58:26;;;;;;;5.30;4.75;;;11.00;93.30;;;;;;5004820;28;20776;-87
2022/12/20 08:00:52;;;;;;;5.07;4.57;;;11.00;93.20;;;;;;5037007;28;20907;-87
2022/12/20 08:03:21;;;;;;;5.60;4.40;;;11.00;93.10;;;;;;5020038;28;20404;-87
2022/12/20 08:05:52;;;;;;;6.47;4.50;;;11.00;93.10;;;;;;5019723;28;20451;-87
2022/12/20 08:08:19;;;;;;;5.68;4.30;;;11.10;93.00;;;;;;5003788;28;20413;-87
2022/12/20 08:10:45;;;;;;;5.93;4.45;;;11.00;93.00;;;;;;5019957;28;20401;-87
2022/12/20 08:13:11;;;;;;;5.13;4.15;;;11.00;92.80;;;;;;5020280;28;20435;-88
2022/12/20 08:15:37;;;;;;;5.30;4.10;;;11.10;92.80;;;;;;5019178;28;20424;-87
2022/12/20 08:18:05;;;;;;;5.47;4.17;;;11.10;92.70;;;;;;5019761;28;20433;-88
2022/12/20 08:20:31;;;;;;;5.80;3.90;;;11.30;92.70;;;;;;5003230;28;20417;-85
2022/12/20 08:22:56;;;;;;;4.60;3.63;;;11.10;92.60;;;;;;5019229;28;20409;-86
2022/12/20 08:25:22;;;;;;;5.13;3.03;;;11.10;92.50;;;;;;5003338;28;20767;-88
2022/12/20 08:27:48;;;;;;;4.75;3.42;;;11.10;92.40;;;;;;5019396;28;20409;-86
2022/12/20 08:30:14;;;;;;;6.97;3.43;;;11.10;92.30;;;;;;5020162;28;20481;-87
2022/12/20 08:32:40;;;;;;;4.30;3.20;;;11.20;92.20;;;;;;5020129;28;20473;-87
2022/12/20 08:35:06;;;;;;;5.22;3.50;;;11.20;92.20;;;;;;5020318;28;20456;-88
2022/12/20 08:37:32;;;;;;;5.30;3.08;;;11.20;92.10;;;;;;5019810;28;20455;-88
2022/12/20 08:39:57;;;;;;;3.58;3.20;;;11.20;92.30;;;;;;5004233;28;20895;-89
2022/12/20 08:42:23;;;;;;;3.83;2.87;;;11.20;92.00;;;;;;5003717;28;20538;-90
2022/12/20 08:44:48;;;;;;;5.03;2.80;;;11.20;91.80;;;;;;5020658;28;20401;-89
2022/12/20 08:47:14;;;;;;;3.63;2.92;;;11.20;91.80;;;;;;5003789;28;20439;-87
2022/12/20 08:49:40;;;;;;;4.30;2.97;;;11.20;91.80;;;;;;5003315;28;20491;-89
2022/12/20 08:52:05;;;;;;;4.78;2.72;;;11.30;91.80;;;;;;5004731;28;20427;-88
2022/12/20 08:54:31;;;;;;;4.10;2.78;;;11.20;91.60;;;;;;5002784;28;20409;-88
2022/12/20 08:56:56;;;;;;;5.60;3.10;;;11.30;91.50;;;;;;5003221;28;20432;-89
2022/12/20 08:59:22;;;;;;;5.15;2.65;;;11.30;91.50;;;;;;5003590;28;20444;-87
2022/12/20 09:01:49;;;;;;;4.03;2.57;;;11.30;91.40;;;;;;5002538;28;20423;-88
2022/12/20 09:04:15;;;;;;;3.67;2.30;;;11.30;91.30;;;;;;5003111;28;20415;-86
2022/12/20 09:06:40;;;;;;;4.28;2.67;;;11.40;91.10;;;;;;5019599;28;20413;-90
2022/12/20 09:09:06;;;;;;;4.53;2.70;;;11.30;91.00;;;;;;5020469;28;20511;-90
2022/12/20 09:11:32;;;;;;;5.50;2.40;;;11.30;91.00;;;;;;5003823;28;20964;-86
2022/12/20 09:13:58;;;;;;;3.87;2.30;;;11.40;90.90;;;;;;5020206;28;20431;-89
2022/12/20 09:16:27;;;;;;;3.63;2.25;;;11.40;90.70;;;;;;5019037;28;20992;-86
2022/12/20 09:18:54;;;;;;;4.07;2.40;;;11.40;90.70;;;;;;5019496;28;20408;-89
2022/12/20 09:21:20;;;;;;;2.97;2.17;;;11.40;90.50;;;;;;5020177;28;20408;-90
2022/12/20 09:23:49;;;;;;;4.40;2.20;;;11.50;90.60;;;;;;5020828;28;20474;-89
2022/12/20 09:26:15;;;;;;;4.15;2.03;;;11.60;90.50;;;;;;5003695;28;20459;-84
2022/12/20 09:28:42;;;;;;;4.07;1.90;;;11.50;90.30;;;;;;5018800;28;20401;-87
2022/12/20 09:31:11;;;;;;;4.95;2.05;;;11.60;90.20;;;;;;5005020;28;20507;-87
2022/12/20 09:33:37;;;;;;;3.22;2.10;;;11.60;90.00;;;;;;5003197;28;21460;-86
2022/12/20 09:36:03;;;;;;;4.50;1.90;;;11.60;90.00;;;;;;5018642;28;20927;-87
2022/12/20 09:38:31;;;;;;;3.80;2.15;;;11.60;89.90;;;;;;5003283;28;21031;-87
2022/12/20 09:41:00;;;;;;;3.45;1.80;;;11.60;89.80;;;;;;5001888;28;20401;-86
2022/12/20 09:43:26;;;;;;;3.97;2.10;;;11.60;89.70;;;;;;5020174;28;20409;-90
2022/12/20 09:45:56;;;;;;;4.05;1.90;;;11.60;89.40;;;;;;5003868;28;21375;-88
2022/12/20 09:48:25;;;;;;;4.38;1.80;;;11.60;89.40;;;;;;5021120;28;20408;-87
2022/12/20 09:51:09;;;;;;;3.85;1.98;;;11.70;89.60;;;;;;5019791;28;20416;-87
2022/12/20 09:54:06;;;;;;;3.72;1.73;;;11.70;89.80;;;;;;5010613;28;20419;-87
2022/12/20 09:56:44;;;;;;;3.38;1.90;;;11.70;89.70;;;;;;4999614;28;20435;-87
2022/12/20 09:59:13;;;;;;;3.83;1.90;;;11.70;89.90;;;;;;4986140;28;20409;-89
2022/12/20 10:01:43;;;;;;;4.20;1.80;;;11.70;90.00;;;;;;5012454;28;20409;-88
2022/12/20 10:04:22;;;;;;;2.67;1.60;;;11.70;90.10;;;;;;4972849;28;20406;-86
2022/12/20 10:07:18;;;;;;;3.88;2.17;;;11.60;90.70;;;;;;4993667;28;20436;-90
2022/12/20 10:10:22;;;;;;;4.50;2.17;;;11.60;90.60;;;;;;4981822;28;20502;-88
2022/12/20 10:13:01;;;;;;;3.92;2.05;;;11.60;90.90;;;;;;4970983;28;20791;-89
2022/12/20 10:15:38;;;;;;;5.00;2.15;;;11.60;90.70;;;;;;4985890;28;20518;-86
2022/12/20 10:18:04;;;;;;;3.50;1.88;;;11.50;90.60;;;;;;4986161;28;20438;-87
2022/12/20 10:20:40;;;;;;;3.60;1.90;;;11.60;90.60;;;;;;4987043;28;20889;-85
2022/12/20 10:23:48;;;;;;;4.00;1.77;;;11.50;90.50;;;;;;4997923;28;20425;-87
2022/12/20 10:26:13;;;;;;;4.53;1.70;;;11.50;90.50;;;;;;4986680;28;20495;-85
2022/12/20 10:28:39;;;;;;;4.82;1.80;;;11.60;90.50;;;;;;4972831;28;20416;-87
2022/12/20 10:31:15;;;;;;;4.18;2.00;;;11.80;90.60;;;;;;4990469;28;20444;-88
2022/12/20 10:33:42;;;;;;;3.83;1.85;;;11.60;90.40;;;;;;4975974;28;20766;-87
2022/12/20 10:36:21;;;;;;;4.85;1.67;;;11.60;90.40;;;;;;4995059;28;20455;-87
2022/12/20 10:38:50;;;;;;;3.72;1.60;;;11.60;90.40;;;;;;4998627;28;20404;-86
2022/12/20 10:41:22;;;;;;;2.97;1.53;;;11.60;90.30;;;;;;4996653;28;20448;-87
2022/12/20 10:43:53;;;;;;;4.72;1.75;;;11.50;90.40;;;;;;4991932;28;20495;-85
2022/12/20 10:46:19;;;;;;;4.32;1.80;;;11.60;90.30;;;;;;4966774;28;20424;-87
2022/12/20 10:48:47;;;;;;;3.50;1.77;;;11.60;90.40;;;;;;5001746;28;20416;-86
2022/12/20 10:51:20;;;;;;;4.78;1.90;;;11.60;90.30;;;;;;5001273;28;20400;-87
2022/12/20 10:53:56;;;;;;;3.17;1.52;;;11.60;90.30;;;;;;5002613;28;20817;-86
2022/12/20 10:56:26;;;;;;;3.88;2.25;;;11.70;90.40;;;;;;4993910;28;20428;-87
2022/12/20 10:58:55;;;;;;;4.38;1.77;;;11.70;90.80;;;;;;5000504;28;20774;-86
2022/12/20 11:01:24;;;;;;;3.08;1.75;;;11.70;90.40;;;;;;5000253;28;20452;-88
2022/12/20 11:03:53;;;;;;;4.22;2.10;;;11.60;90.50;;;;;;4983865;28;20412;-86
2022/12/20 11:06:20;;;;;;;4.65;1.95;;;11.70;90.50;;;;;;4993002;28;20443;-90
2022/12/20 11:08:47;;;;;;;3.80;1.98;;;11.70;90.60;;;;;;5000083;28;20415;-89
2022/12/20 11:11:19;;;;;;;3.85;1.80;;;11.60;90.60;;;;;;5009799;28;20746;-87
2022/12/20 11:13:45;;;;;;;3.75;2.00;;;11.70;90.60;;;;;;4976316;28;20430;-86
2022/12/20 11:16:25;;;;;;;5.25;2.03;;;11.60;90.70;;;;;;4985686;28;20953;-85
2022/12/20 11:18:56;;;;;;;5.82;2.10;;;11.60;90.70;;;;;;4986547;28;20773;-85
2022/12/20 11:21:37;;;;;;;3.80;1.90;;;11.60;90.90;;;;;;4997878;28;20413;-86
2022/12/20 11:24:08;;;;;;;4.40;2.50;;;11.60;90.90;;;;;;5005365;28;20457;-88
2022/12/20 11:27:03;;;;;;;4.03;2.10;;;11.50;91.00;;;;;;5005206;28;20417;-86
2022/12/20 11:29:35;;;;;;;4.03;2.40;;;11.50;91.10;;;;;;5002603;28;20720;-89
2022/12/20 11:32:31;;;;;;;3.83;2.50;;;11.50;91.30;;;;;;5005153;28;20416;-88
2022/12/20 11:35:12;;;;;;;4.88;2.60;;;11.50;91.50;;;;;;5016361;28;20442;-86
2022/12/20 11:37:45;;;;;;;4.30;2.95;;;11.50;91.70;;;;;;4997177;28;20426;-87
2022/12/20 11:40:19;;;;;;;4.05;2.97;;;11.40;91.70;;;;;;5020722;28;20481;-86
2022/12/20 11:42:53;;;;;;;3.70;2.60;;;11.40;91.70;;;;;;4976425;28;20539;-86
2022/12/20 11:45:52;;;;;;;5.35;2.90;;;11.40;91.80;;;;;;5024271;28;20444;-86
2022/12/20 11:48:48;;;;;;;4.40;2.90;;;11.40;91.90;;;;;;5032865;28;20501;-88
2022/12/20 11:51:36;;;;;;;4.95;3.05;;;11.30;91.90;;;;;;4990122;28;20434;-86
2022/12/20 11:54:22;;;;;;;6.57;3.22;;;11.30;92.00;;;;;;4987664;28;20980;-85
2022/12/20 11:56:55;;;;;;;3.60;2.88;;;11.40;92.00;;;;;;4987110;28;20482;-85
2022/12/20 11:59:43;;;;;;;6.37;3.83;;;11.30;92.00;;;;;;5031419;28;20417;-85
2022/12/20 12:02:18;;;;;;;6.07;3.30;;;11.30;92.10;;;;;;4995175;28;20413;-85
2022/12/20 12:05:22;;;;;;;6.78;4.07;;;11.30;92.10;;;;;;5030960;28;20741;-86
2022/12/20 12:07:55;;;;;;;6.03;4.20;;;11.30;92.40;;;;;;4980513;28;20456;-86
2022/12/20 12:10:35;;;;;;;5.85;4.63;;;11.30;92.50;;;;;;5037520;28;20417;-85
2022/12/20 12:13:24;;;;;;;6.80;4.57;;;11.30;92.70;;;;;;5036988;28;20556;-86
2022/12/20 12:16:16;;;;;;;6.10;5.10;;;11.30;93.00;;;;;;5036946;28;20508;-85
2022/12/20 12:18:42;;;;;;;6.35;5.40;;;11.20;93.00;;;;;;5036414;28;20428;-85
2022/12/20 12:21:14;;;;;;;7.07;5.13;;;11.20;93.20;;;;;;5037002;28;21142;-85
2022/12/20 12:24:01;;;;;;;6.35;5.40;;;11.10;93.30;;;;;;5034584;28;20421;-86
2022/12/20 12:26:35;;;;;;;7.53;5.85;;;11.10;93.40;;;;;;4983889;28;20433;-85
2022/12/20 12:29:10;;;;;;;5.90;5.30;;;11.10;93.50;;;;;;4968513;28;20418;-85
2022/12/20 12:32:01;;;;;;;6.70;5.97;;;11.10;93.50;;;;;;4984660;28;20419;-85
2022/12/20 12:34:42;;;;;;;7.53;5.88;;;11.10;93.40;;;;;;4984251;28;20450;-85
2022/12/20 12:37:38;;;;;;;7.13;6.17;;;11.10;93.40;;;;;;4984630;28;20968;-85
2022/12/20 12:40:31;;;;;;;9.57;6.68;;;11.10;93.50;;;;;;4984384;28;20418;-85
2022/12/20 12:43:31;;;;;;;9.27;6.20;;;11.10;93.50;;;;;;4984099;28;20419;-85
2022/12/20 12:45:58;;;;;;;7.97;6.95;;;11.20;93.50;;;;;;4984421;28;20411;-85
2022/12/20 12:48:39;;;;;;;8.45;7.20;;;11.20;93.40;;;;;;4967950;28;20414;-87
2022/12/20 12:51:05;;;;;;;7.83;7.00;;;11.10;93.50;;;;;;4984214;28;20429;-85
2022/12/20 12:53:44;;;;;;;7.70;6.88;;;11.20;93.50;;;;;;4967794;28;20506;-86
2022/12/20 12:56:25;;;;;;;7.82;6.95;;;11.20;93.50;;;;;;4983868;28;20821;-85
2022/12/20 12:59:14;;;;;;;8.80;7.20;;;11.20;93.40;;;;;;4984317;28;20430;-86
2022/12/20 13:02:16;;;;;;;8.27;7.10;;;11.20;93.40;;;;;;4983070;28;20457;-85
2022/12/20 13:05:19;;;;;;;7.63;6.88;;;11.20;93.30;;;;;;4967156;28;20431;-84
2022/12/20 13:07:45;;;;;;;8.35;6.68;;;11.30;93.40;;;;;;4968264;28;21209;-85
2022/12/20 13:10:13;;;;;;;7.63;6.90;;;11.30;93.20;;;;;;4983369;28;20557;-85
2022/12/20 13:12:39;;;;;;;8.05;7.10;;;11.30;93.20;;;;;;4983633;28;20422;-85
2022/12/20 13:15:20;;;;;;;8.05;7.03;;;11.30;93.20;;;;;;4983574;28;20453;-85
2022/12/20 13:17:49;;;;;;;8.95;7.50;;;11.30;93.10;;;;;;4983338;28;20517;-85